sensor_id;sensor_type;location;lat;lon;timestamp;pressure;altitude;pressure_sealevel;temperature;humidity
39455;BME280;25155;41.890;23.446;2023-08-06T00:01:03;90836.16;;;22.53;58.19
39455;BME280;25155;41.890;23.446;2023-08-06T00:03:30;90843.72;;;22.47;60.23
39455;BME280;25155;41.890;23.446;2023-08-06T00:05:59;90840.56;;;22.38;59.85
39455;BME280;25155;41.890;23.446;2023-08-06T00:08:26;90840.56;;;22.38;59.13
39455;BME280;25155;41.890;23.446;2023-08-06T00:10:53;90834.13;;;22.39;59.34
39455;BME280;25155;41.890;23.446;2023-08-06T00:13:20;90837.53;;;22.40;59.11
39455;BME280;25155;41.890;23.446;2023-08-06T00:15:47;90830.69;;;22.39;58.98
39455;BME280;25155;41.890;23.446;2023-08-06T00:18:15;90826.84;;;22.33;59.90
39455;BME280;25155;41.890;23.446;2023-08-06T00:20:42;90821.09;;;22.30;59.35
39455;BME280;25155;41.890;23.446;2023-08-06T00:23:10;90809.38;;;22.32;59.63
39455;BME280;25155;41.890;23.446;2023-08-06T00:25:37;90809.38;;;22.32;59.70
39455;BME280;25155;41.890;23.446;2023-08-06T00:28:04;90812.78;;;22.32;58.82
39455;BME280;25155;41.890;23.446;2023-08-06T00:30:31;90820.78;;;22.36;59.18
39455;BME280;25155;41.890;23.446;2023-08-06T00:32:59;90831.84;;;22.38;58.92
39455;BME280;25155;41.890;23.446;2023-08-06T00:35:26;90824.63;;;22.38;58.93
39455;BME280;25155;41.890;23.446;2023-08-06T00:37:53;90824.63;;;22.38;58.72
39455;BME280;25155;41.890;23.446;2023-08-06T00:40:22;90819.31;;;22.38;58.42
39455;BME280;25155;41.890;23.446;2023-08-06T00:42:49;90827.66;;;22.40;58.55
39455;BME280;25155;41.890;23.446;2023-08-06T00:45:16;90820.47;;;22.41;58.83
39455;BME280;25155;41.890;23.446;2023-08-06T00:47:43;90809.31;;;22.28;60.39
39455;BME280;25155;41.890;23.446;2023-08-06T00:50:11;90792.91;;;22.22;59.25
39455;BME280;25155;41.890;23.446;2023-08-06T00:52:38;90780.41;;;22.23;59.51
39455;BME280;25155;41.890;23.446;2023-08-06T00:55:06;90771.31;;;22.24;58.85
39455;BME280;25155;41.890;23.446;2023-08-06T00:57:35;90778.91;;;22.25;58.47
39455;BME280;25155;41.890;23.446;2023-08-06T01:00:03;90779.75;;;22.29;58.46
39455;BME280;25155;41.890;23.446;2023-08-06T01:02:31;90790.03;;;22.31;58.69
39455;BME280;25155;41.890;23.446;2023-08-06T01:04:58;90791.13;;;22.30;59.08
39455;BME280;25155;41.890;23.446;2023-08-06T01:07:37;90792.53;;;22.24;59.66
39455;BME280;25155;41.890;23.446;2023-08-06T01:10:23;90783.75;;;22.16;58.93
39455;BME280;25155;41.890;23.446;2023-08-06T01:13:02;90778.81;;;22.15;59.04
39455;BME280;25155;41.890;23.446;2023-08-06T01:15:36;90772.72;;;22.14;60.26
39455;BME280;25155;41.890;23.446;2023-08-06T01:18:06;90781.47;;;22.15;60.02
39455;BME280;25155;41.890;23.446;2023-08-06T01:20:35;90774.94;;;22.08;59.68
39455;BME280;25155;41.890;23.446;2023-08-06T01:23:02;90766.22;;;22.08;59.64
39455;BME280;25155;41.890;23.446;2023-08-06T01:25:33;90749.09;;;22.05;61.35
39455;BME280;25155;41.890;23.446;2023-08-06T01:28:07;90760.75;;;21.97;61.29
39455;BME280;25155;41.890;23.446;2023-08-06T01:30:41;90761.47;;;21.94;60.83
39455;BME280;25155;41.890;23.446;2023-08-06T01:33:13;90760.69;;;21.90;60.55
39455;BME280;25155;41.890;23.446;2023-08-06T01:35:44;90753.84;;;21.89;60.65
39455;BME280;25155;41.890;23.446;2023-08-06T01:38:11;90748.16;;;21.90;60.84
39455;BME280;25155;41.890;23.446;2023-08-06T01:40:39;90726.94;;;21.90;61.33
39455;BME280;25155;41.890;23.446;2023-08-06T01:43:06;90724.63;;;21.89;61.22
39455;BME280;25155;41.890;23.446;2023-08-06T01:45:34;90718.56;;;21.88;60.76
39455;BME280;25155;41.890;23.446;2023-08-06T01:48:01;90719.69;;;21.87;60.69
39455;BME280;25155;41.890;23.446;2023-08-06T01:50:28;90734.13;;;21.90;60.68
39455;BME280;25155;41.890;23.446;2023-08-06T01:52:56;90738.25;;;21.87;60.36
39455;BME280;25155;41.890;23.446;2023-08-06T01:55:23;90707.97;;;21.88;60.40
39455;BME280;25155;41.890;23.446;2023-08-06T01:57:51;90695.44;;;21.89;60.51
39455;BME280;25155;41.890;23.446;2023-08-06T02:00:18;90704.50;;;21.88;60.72
39455;BME280;25155;41.890;23.446;2023-08-06T02:02:45;90710.97;;;21.87;60.78
39455;BME280;25155;41.890;23.446;2023-08-06T02:05:13;90717.78;;;21.88;60.33
39455;BME280;25155;41.890;23.446;2023-08-06T02:07:40;90704.13;;;21.86;60.69
39455;BME280;25155;41.890;23.446;2023-08-06T02:10:09;90713.94;;;21.82;60.94
39455;BME280;25155;41.890;23.446;2023-08-06T02:12:36;90729.09;;;21.81;60.84
39455;BME280;25155;41.890;23.446;2023-08-06T02:15:05;90742.31;;;21.78;61.10
39455;BME280;25155;41.890;23.446;2023-08-06T02:17:32;90756.31;;;21.74;61.00
39455;BME280;25155;41.890;23.446;2023-08-06T02:19:59;90764.56;;;21.69;62.83
39455;BME280;25155;41.890;23.446;2023-08-06T02:22:27;90758.50;;;21.42;64.72
39455;BME280;25155;41.890;23.446;2023-08-06T02:24:54;90753.22;;;21.15;66.54
39455;BME280;25155;41.890;23.446;2023-08-06T02:27:23;90750.53;;;20.89;66.52
39455;BME280;25155;41.890;23.446;2023-08-06T02:29:50;90743.38;;;20.93;65.48
39455;BME280;25155;41.890;23.446;2023-08-06T02:32:17;90739.72;;;21.01;64.82
39455;BME280;25155;41.890;23.446;2023-08-06T02:34:45;90747.06;;;21.11;64.41
39455;BME280;25155;41.890;23.446;2023-08-06T02:37:12;90755.50;;;21.17;64.59
39455;BME280;25155;41.890;23.446;2023-08-06T02:39:39;90767.28;;;20.96;67.07
39455;BME280;25155;41.890;23.446;2023-08-06T02:42:07;90768.00;;;20.70;67.28
39455;BME280;25155;41.890;23.446;2023-08-06T02:44:36;90766.78;;;20.64;67.06
39455;BME280;25155;41.890;23.446;2023-08-06T02:47:03;90750.41;;;20.39;67.72
39455;BME280;25155;41.890;23.446;2023-08-06T02:49:30;90722.75;;;20.36;67.42
39455;BME280;25155;41.890;23.446;2023-08-06T02:51:57;90740.00;;;20.50;66.90
39455;BME280;25155;41.890;23.446;2023-08-06T02:54:24;90753.72;;;20.55;66.86
39455;BME280;25155;41.890;23.446;2023-08-06T02:56:51;90773.03;;;20.56;66.93
39455;BME280;25155;41.890;23.446;2023-08-06T02:59:19;90773.38;;;20.31;66.65
39455;BME280;25155;41.890;23.446;2023-08-06T03:01:47;90770.31;;;20.09;67.64
39455;BME280;25155;41.890;23.446;2023-08-06T03:04:14;90770.78;;;19.96;69.25
39455;BME280;25155;41.890;23.446;2023-08-06T03:06:43;90781.53;;;19.83;69.69
39455;BME280;25155;41.890;23.446;2023-08-06T03:09:11;90787.91;;;19.47;70.43
39455;BME280;25155;41.890;23.446;2023-08-06T03:11:38;90791.59;;;19.26;71.75
39455;BME280;25155;41.890;23.446;2023-08-06T03:14:05;90795.47;;;19.13;71.75
39455;BME280;25155;41.890;23.446;2023-08-06T03:16:32;90804.59;;;19.31;70.70
39455;BME280;25155;41.890;23.446;2023-08-06T03:19:01;90810.59;;;19.48;69.67
39455;BME280;25155;41.890;23.446;2023-08-06T03:21:28;90810.22;;;19.65;68.44
39455;BME280;25155;41.890;23.446;2023-08-06T03:23:55;90792.38;;;19.78;68.01
39455;BME280;25155;41.890;23.446;2023-08-06T03:26:23;90784.31;;;19.90;67.73
39455;BME280;25155;41.890;23.446;2023-08-06T03:28:50;90788.28;;;20.00;67.38
39455;BME280;25155;41.890;23.446;2023-08-06T03:31:17;90800.53;;;20.08;66.87
39455;BME280;25155;41.890;23.446;2023-08-06T03:33:44;90813.28;;;20.03;68.68
39455;BME280;25155;41.890;23.446;2023-08-06T03:36:12;90813.13;;;19.96;68.65
39455;BME280;25155;41.890;23.446;2023-08-06T03:38:39;90833.53;;;19.95;69.07
39455;BME280;25155;41.890;23.446;2023-08-06T03:41:07;90827.41;;;19.91;69.43
39455;BME280;25155;41.890;23.446;2023-08-06T03:43:34;90815.78;;;19.96;68.67
39455;BME280;25155;41.890;23.446;2023-08-06T03:46:01;90810.31;;;20.04;68.10
39455;BME280;25155;41.890;23.446;2023-08-06T03:48:30;90801.72;;;20.11;67.64
39455;BME280;25155;41.890;23.446;2023-08-06T03:50:57;90805.97;;;20.16;67.48
39455;BME280;25155;41.890;23.446;2023-08-06T03:53:28;90792.03;;;20.19;67.41
39455;BME280;25155;41.890;23.446;2023-08-06T03:55:55;90786.44;;;20.24;67.14
39455;BME280;25155;41.890;23.446;2023-08-06T03:58:26;90781.59;;;20.26;66.91
39455;BME280;25155;41.890;23.446;2023-08-06T04:00:58;90777.00;;;20.23;67.11
39455;BME280;25155;41.890;23.446;2023-08-06T04:03:25;90781.16;;;20.24;66.33
39455;BME280;25155;41.890;23.446;2023-08-06T04:05:53;90772.88;;;20.25;65.69
39455;BME280;25155;41.890;23.446;2023-08-06T04:08:20;90777.28;;;20.18;66.38
39455;BME280;25155;41.890;23.446;2023-08-06T04:10:51;90779.38;;;20.08;66.09
39455;BME280;25155;41.890;23.446;2023-08-06T04:13:19;90785.06;;;20.10;65.94
39455;BME280;25155;41.890;23.446;2023-08-06T04:15:47;90776.25;;;20.03;66.97
39455;BME280;25155;41.890;23.446;2023-08-06T04:18:14;90770.94;;;20.03;67.19
39455;BME280;25155;41.890;23.446;2023-08-06T04:20:44;90775.31;;;19.95;67.54
39455;BME280;25155;41.890;23.446;2023-08-06T04:23:11;90764.44;;;19.81;69.14
39455;BME280;25155;41.890;23.446;2023-08-06T04:25:39;90766.81;;;19.86;68.58
39455;BME280;25155;41.890;23.446;2023-08-06T04:28:07;90772.25;;;19.93;69.05
39455;BME280;25155;41.890;23.446;2023-08-06T04:30:35;90755.75;;;20.00;68.83
39455;BME280;25155;41.890;23.446;2023-08-06T04:33:04;90765.72;;;20.06;69.14
39455;BME280;25155;41.890;23.446;2023-08-06T04:35:31;90774.81;;;20.09;68.92
39455;BME280;25155;41.890;23.446;2023-08-06T04:37:58;90766.47;;;20.07;69.23
39455;BME280;25155;41.890;23.446;2023-08-06T04:40:25;90754.38;;;20.06;69.91
39455;BME280;25155;41.890;23.446;2023-08-06T04:42:53;90750.47;;;20.00;69.49
39455;BME280;25155;41.890;23.446;2023-08-06T04:45:21;90746.56;;;19.94;70.04
39455;BME280;25155;41.890;23.446;2023-08-06T04:47:50;90754.16;;;19.95;71.00
39455;BME280;25155;41.890;23.446;2023-08-06T04:50:17;90751.16;;;19.97;71.07
39455;BME280;25155;41.890;23.446;2023-08-06T04:52:45;90751.72;;;20.06;71.10
39455;BME280;25155;41.890;23.446;2023-08-06T04:55:12;90756.78;;;20.15;70.87
39455;BME280;25155;41.890;23.446;2023-08-06T04:57:39;90746.97;;;20.15;72.19
39455;BME280;25155;41.890;23.446;2023-08-06T05:16:21;90742.09;;;21.33;69.63
39455;BME280;25155;41.890;23.446;2023-08-06T05:18:49;90738.06;;;21.16;69.96
39455;BME280;25155;41.890;23.446;2023-08-06T05:21:16;90736.47;;;21.11;70.71
39455;BME280;25155;41.890;23.446;2023-08-06T05:23:43;90743.84;;;20.98;70.01
39455;BME280;25155;41.890;23.446;2023-08-06T05:26:10;90742.94;;;20.87;70.35
39455;BME280;25155;41.890;23.446;2023-08-06T05:28:40;90743.69;;;20.88;70.11
39455;BME280;25155;41.890;23.446;2023-08-06T05:31:08;90736.16;;;20.90;69.76
39455;BME280;25155;41.890;23.446;2023-08-06T05:33:36;90729.38;;;20.92;69.67
39455;BME280;25155;41.890;23.446;2023-08-06T05:36:04;90727.13;;;20.94;70.46
39455;BME280;25155;41.890;23.446;2023-08-06T05:38:31;90734.03;;;20.99;70.41
39455;BME280;25155;41.890;23.446;2023-08-06T05:40:59;90726.06;;;20.99;69.30
39455;BME280;25155;41.890;23.446;2023-08-06T05:43:26;90733.31;;;21.02;70.92
39455;BME280;25155;41.890;23.446;2023-08-06T05:45:53;90731.81;;;21.05;70.24
39455;BME280;25155;41.890;23.446;2023-08-06T05:48:20;90731.94;;;21.12;70.37
39455;BME280;25155;41.890;23.446;2023-08-06T05:50:49;90736.63;;;21.22;69.48
39455;BME280;25155;41.890;23.446;2023-08-06T05:53:17;90746.97;;;21.31;68.88
39455;BME280;25155;41.890;23.446;2023-08-06T05:55:44;90745.56;;;21.37;67.55
39455;BME280;25155;41.890;23.446;2023-08-06T05:58:12;90758.16;;;21.44;67.51
39455;BME280;25155;41.890;23.446;2023-08-06T06:00:40;90757.91;;;21.52;67.19
39455;BME280;25155;41.890;23.446;2023-08-06T06:03:08;90759.94;;;21.63;66.60
39455;BME280;25155;41.890;23.446;2023-08-06T06:05:37;90764.63;;;21.73;65.96
39455;BME280;25155;41.890;23.446;2023-08-06T06:08:06;90774.63;;;21.83;65.76
39455;BME280;25155;41.890;23.446;2023-08-06T06:10:33;90759.59;;;21.95;65.26
39455;BME280;25155;41.890;23.446;2023-08-06T06:13:02;90762.38;;;22.05;64.67
39455;BME280;25155;41.890;23.446;2023-08-06T06:15:29;90755.25;;;22.13;64.28
39455;BME280;25155;41.890;23.446;2023-08-06T06:17:56;90755.22;;;22.09;61.78
39455;BME280;25155;41.890;23.446;2023-08-06T06:20:23;90747.28;;;22.13;62.83
39455;BME280;25155;41.890;23.446;2023-08-06T06:22:51;90743.22;;;22.23;64.06
39455;BME280;25155;41.890;23.446;2023-08-06T06:25:19;90745.63;;;22.32;64.82
39455;BME280;25155;41.890;23.446;2023-08-06T06:27:46;90744.25;;;22.45;64.42
39455;BME280;25155;41.890;23.446;2023-08-06T06:30:14;90748.84;;;22.52;63.60
39455;BME280;25155;41.890;23.446;2023-08-06T06:32:41;90750.41;;;22.56;62.32
39455;BME280;25155;41.890;23.446;2023-08-06T06:35:09;90748.56;;;22.60;61.81
39455;BME280;25155;41.890;23.446;2023-08-06T06:37:36;90747.50;;;22.69;62.19
39455;BME280;25155;41.890;23.446;2023-08-06T06:40:04;90742.16;;;22.69;61.60
39455;BME280;25155;41.890;23.446;2023-08-06T06:42:33;90739.59;;;22.35;60.69
39455;BME280;25155;41.890;23.446;2023-08-06T06:45:00;90746.41;;;22.02;58.15
39455;BME280;25155;41.890;23.446;2023-08-06T06:47:27;90755.00;;;21.91;59.50
39455;BME280;25155;41.890;23.446;2023-08-06T06:49:55;90751.94;;;21.89;60.95
39455;BME280;25155;41.890;23.446;2023-08-06T06:52:22;90760.13;;;21.77;60.62
39455;BME280;25155;41.890;23.446;2023-08-06T06:54:49;90751.63;;;21.64;59.65
39455;BME280;25155;41.890;23.446;2023-08-06T06:57:16;90756.09;;;21.56;61.08
39455;BME280;25155;41.890;23.446;2023-08-06T06:59:45;90759.19;;;21.62;60.86
39455;BME280;25155;41.890;23.446;2023-08-06T07:02:12;90761.56;;;21.71;61.45
39455;BME280;25155;41.890;23.446;2023-08-06T07:04:40;90765.75;;;21.72;61.89
39455;BME280;25155;41.890;23.446;2023-08-06T07:07:07;90774.59;;;21.80;62.06
39455;BME280;25155;41.890;23.446;2023-08-06T07:09:34;90781.06;;;21.82;62.33
39455;BME280;25155;41.890;23.446;2023-08-06T07:12:01;90788.28;;;21.85;63.20
39455;BME280;25155;41.890;23.446;2023-08-06T07:14:29;90790.31;;;21.96;62.78
39455;BME280;25155;41.890;23.446;2023-08-06T07:16:58;90803.47;;;21.85;61.98
39455;BME280;25155;41.890;23.446;2023-08-06T07:19:25;90817.63;;;21.96;63.06
39455;BME280;25155;41.890;23.446;2023-08-06T07:21:52;90818.81;;;21.99;61.96
39455;BME280;25155;41.890;23.446;2023-08-06T07:24:19;90821.06;;;21.97;60.84
39455;BME280;25155;41.890;23.446;2023-08-06T07:26:46;90819.88;;;21.94;62.03
39455;BME280;25155;41.890;23.446;2023-08-06T07:29:14;90824.81;;;21.96;60.94
39455;BME280;25155;41.890;23.446;2023-08-06T07:31:45;90831.91;;;21.88;61.43
39455;BME280;25155;41.890;23.446;2023-08-06T07:34:13;90837.22;;;21.88;61.43
39455;BME280;25155;41.890;23.446;2023-08-06T07:36:43;90834.66;;;21.91;61.72
39455;BME280;25155;41.890;23.446;2023-08-06T07:39:11;90846.56;;;22.05;61.24
39455;BME280;25155;41.890;23.446;2023-08-06T07:41:38;90842.47;;;22.11;60.36
39455;BME280;25155;41.890;23.446;2023-08-06T07:44:06;90851.34;;;22.22;60.63
39455;BME280;25155;41.890;23.446;2023-08-06T07:46:34;90853.81;;;22.35;60.63
39455;BME280;25155;41.890;23.446;2023-08-06T07:49:01;90848.97;;;22.44;60.37
39455;BME280;25155;41.890;23.446;2023-08-06T07:51:30;90852.75;;;22.43;59.53
39455;BME280;25155;41.890;23.446;2023-08-06T07:53:58;90852.78;;;22.46;59.32
39455;BME280;25155;41.890;23.446;2023-08-06T07:56:25;90852.91;;;22.57;58.80
39455;BME280;25155;41.890;23.446;2023-08-06T07:58:52;90865.50;;;22.64;59.23
39455;BME280;25155;41.890;23.446;2023-08-06T08:01:19;90862.94;;;22.71;58.27
39455;BME280;25155;41.890;23.446;2023-08-06T08:03:47;90866.06;;;22.80;57.74
39455;BME280;25155;41.890;23.446;2023-08-06T08:06:14;90869.97;;;22.90;57.55
39455;BME280;25155;41.890;23.446;2023-08-06T08:08:42;90868.13;;;22.94;58.11
39455;BME280;25155;41.890;23.446;2023-08-06T08:11:10;90874.94;;;22.95;56.82
39455;BME280;25155;41.890;23.446;2023-08-06T08:13:37;90875.38;;;22.97;57.05
39455;BME280;25155;41.890;23.446;2023-08-06T08:16:04;90883.28;;;22.94;56.63
39455;BME280;25155;41.890;23.446;2023-08-06T08:18:31;90868.91;;;22.98;56.40
39455;BME280;25155;41.890;23.446;2023-08-06T08:20:58;90867.22;;;23.17;55.15
39455;BME280;25155;41.890;23.446;2023-08-06T08:23:26;90880.59;;;23.24;54.40
39455;BME280;25155;41.890;23.446;2023-08-06T08:25:54;90872.28;;;23.29;54.09
39455;BME280;25155;41.890;23.446;2023-08-06T08:28:22;90873.09;;;23.37;53.01
39455;BME280;25155;41.890;23.446;2023-08-06T08:30:49;90865.16;;;23.40;51.50
39455;BME280;25155;41.890;23.446;2023-08-06T08:33:17;90862.16;;;23.46;52.51
39455;BME280;25155;41.890;23.446;2023-08-06T08:35:46;90865.19;;;23.48;51.45
39455;BME280;25155;41.890;23.446;2023-08-06T08:38:13;90857.69;;;23.61;51.24
39455;BME280;25155;41.890;23.446;2023-08-06T08:40:45;90847.78;;;23.54;50.32
39455;BME280;25155;41.890;23.446;2023-08-06T08:43:16;90846.31;;;23.64;51.74
39455;BME280;25155;41.890;23.446;2023-08-06T08:45:46;90845.22;;;23.72;51.26
39455;BME280;25155;41.890;23.446;2023-08-06T08:48:17;90843.78;;;23.82;52.29
39455;BME280;25155;41.890;23.446;2023-08-06T08:50:47;90842.72;;;23.90;50.45
39455;BME280;25155;41.890;23.446;2023-08-06T08:53:16;90835.53;;;24.01;50.05
39455;BME280;25155;41.890;23.446;2023-08-06T08:55:46;90828.38;;;24.12;49.79
39455;BME280;25155;41.890;23.446;2023-08-06T08:58:15;90831.41;;;24.11;49.64
39455;BME280;25155;41.890;23.446;2023-08-06T09:00:43;90835.59;;;24.12;48.40
39455;BME280;25155;41.890;23.446;2023-08-06T09:03:12;90830.66;;;24.10;47.29
39455;BME280;25155;41.890;23.446;2023-08-06T09:05:44;90829.13;;;24.09;48.22
39455;BME280;25155;41.890;23.446;2023-08-06T09:08:13;90827.25;;;24.17;48.68
39455;BME280;25155;41.890;23.446;2023-08-06T09:10:44;90829.97;;;24.28;47.83
39455;BME280;25155;41.890;23.446;2023-08-06T09:13:11;90828.09;;;24.32;48.62
39455;BME280;25155;41.890;23.446;2023-08-06T09:15:40;90822.41;;;24.44;49.15
39455;BME280;25155;41.890;23.446;2023-08-06T09:18:10;90824.78;;;24.64;48.87
39455;BME280;25155;41.890;23.446;2023-08-06T09:20:38;90836.19;;;24.61;46.23
39455;BME280;25155;41.890;23.446;2023-08-06T09:23:07;90826.31;;;24.61;47.43
39455;BME280;25155;41.890;23.446;2023-08-06T09:25:38;90840.81;;;24.71;48.21
39455;BME280;25155;41.890;23.446;2023-08-06T09:28:06;90841.06;;;24.44;45.29
39455;BME280;25155;41.890;23.446;2023-08-06T09:30:36;90836.63;;;24.66;46.21
39455;BME280;25155;41.890;23.446;2023-08-06T09:33:08;90849.97;;;24.70;46.78
39455;BME280;25155;41.890;23.446;2023-08-06T09:35:37;90851.91;;;24.88;46.77
39455;BME280;25155;41.890;23.446;2023-08-06T09:38:08;90846.19;;;24.89;45.97
39455;BME280;25155;41.890;23.446;2023-08-06T09:40:37;90847.34;;;24.92;45.53
39455;BME280;25155;41.890;23.446;2023-08-06T09:43:05;90840.84;;;24.85;46.45
39455;BME280;25155;41.890;23.446;2023-08-06T09:45:34;90850.38;;;24.94;45.78
39455;BME280;25155;41.890;23.446;2023-08-06T09:48:05;90851.56;;;25.00;45.92
39455;BME280;25155;41.890;23.446;2023-08-06T09:50:34;90842.38;;;24.90;46.09
39455;BME280;25155;41.890;23.446;2023-08-06T09:53:03;90835.56;;;24.93;45.31
39455;BME280;25155;41.890;23.446;2023-08-06T09:55:32;90840.13;;;25.03;45.17
39455;BME280;25155;41.890;23.446;2023-08-06T09:57:59;90853.88;;;25.19;43.69
39455;BME280;25155;41.890;23.446;2023-08-06T10:00:27;90847.00;;;25.11;41.61
39455;BME280;25155;41.890;23.446;2023-08-06T10:02:59;90855.75;;;25.04;43.01
39455;BME280;25155;41.890;23.446;2023-08-06T10:05:29;90857.22;;;24.84;42.79
39455;BME280;25155;41.890;23.446;2023-08-06T10:07:59;90856.91;;;25.07;44.56
39455;BME280;25155;41.890;23.446;2023-08-06T10:10:29;90853.44;;;24.85;43.57
39455;BME280;25155;41.890;23.446;2023-08-06T10:12:58;90861.88;;;25.19;42.32
39455;BME280;25155;41.890;23.446;2023-08-06T10:15:28;90864.22;;;25.28;40.10
39455;BME280;25155;41.890;23.446;2023-08-06T10:17:58;90850.44;;;25.08;40.89
39455;BME280;25155;41.890;23.446;2023-08-06T10:20:26;90850.09;;;25.24;42.43
39455;BME280;25155;41.890;23.446;2023-08-06T10:23:01;90846.31;;;25.32;43.75
39455;BME280;25155;41.890;23.446;2023-08-06T10:25:31;90840.97;;;25.57;42.61
39455;BME280;25155;41.890;23.446;2023-08-06T10:27:59;90837.13;;;25.58;41.85
39455;BME280;25155;41.890;23.446;2023-08-06T10:30:28;90828.38;;;25.54;42.41
39455;BME280;25155;41.890;23.446;2023-08-06T10:32:58;90842.09;;;25.42;42.24
39455;BME280;25155;41.890;23.446;2023-08-06T10:35:31;90840.56;;;25.48;43.57
39455;BME280;25155;41.890;23.446;2023-08-06T10:38:01;90845.16;;;25.48;44.12
39455;BME280;25155;41.890;23.446;2023-08-06T10:40:31;90845.53;;;25.53;44.19
39455;BME280;25155;41.890;23.446;2023-08-06T10:42:59;90846.28;;;25.50;43.24
39455;BME280;25155;41.890;23.446;2023-08-06T10:45:27;90842.84;;;25.75;44.00
39455;BME280;25155;41.890;23.446;2023-08-06T10:47:56;90837.91;;;25.84;41.97
39455;BME280;25155;41.890;23.446;2023-08-06T10:50:24;90848.53;;;25.95;44.00
39455;BME280;25155;41.890;23.446;2023-08-06T10:52:52;90864.97;;;25.86;43.18
39455;BME280;25155;41.890;23.446;2023-08-06T10:55:25;90855.44;;;25.92;42.50
39455;BME280;25155;41.890;23.446;2023-08-06T10:57:54;90845.50;;;25.93;43.89
39455;BME280;25155;41.890;23.446;2023-08-06T11:00:22;90844.00;;;25.95;43.77
39455;BME280;25155;41.890;23.446;2023-08-06T11:02:51;90836.38;;;25.79;43.58
39455;BME280;25155;41.890;23.446;2023-08-06T11:05:18;90850.88;;;25.71;43.97
39455;BME280;25155;41.890;23.446;2023-08-06T11:07:46;90837.13;;;25.58;42.22
39455;BME280;25155;41.890;23.446;2023-08-06T11:10:15;90855.44;;;25.42;42.96
39455;BME280;25155;41.890;23.446;2023-08-06T11:12:44;90853.16;;;25.51;42.76
39455;BME280;25155;41.890;23.446;2023-08-06T11:15:11;90861.16;;;25.51;41.62
39455;BME280;25155;41.890;23.446;2023-08-06T11:17:40;90865.75;;;25.54;41.69
39455;BME280;25155;41.890;23.446;2023-08-06T11:20:08;90860.41;;;25.51;41.38
39455;BME280;25155;41.890;23.446;2023-08-06T11:22:36;90878.31;;;25.43;41.73
39455;BME280;25155;41.890;23.446;2023-08-06T11:25:05;90882.13;;;25.35;41.41
39455;BME280;25155;41.890;23.446;2023-08-06T11:27:33;90898.50;;;25.26;42.39
39455;BME280;25155;41.890;23.446;2023-08-06T11:30:02;90894.31;;;25.29;42.02
39455;BME280;25155;41.890;23.446;2023-08-06T11:32:29;90897.78;;;25.47;42.80
39455;BME280;25155;41.890;23.446;2023-08-06T11:34:57;90885.97;;;25.55;44.07
39455;BME280;25155;41.890;23.446;2023-08-06T11:37:24;90899.69;;;25.65;41.47
39455;BME280;25155;41.890;23.446;2023-08-06T11:39:51;90893.22;;;25.66;42.23
39455;BME280;25155;41.890;23.446;2023-08-06T11:42:19;90881.78;;;25.72;41.44
39455;BME280;25155;41.890;23.446;2023-08-06T11:44:46;90898.19;;;25.85;41.83
39455;BME280;25155;41.890;23.446;2023-08-06T11:47:17;90896.28;;;25.86;42.43
39455;BME280;25155;41.890;23.446;2023-08-06T11:49:46;90889.78;;;25.79;41.12
39455;BME280;25155;41.890;23.446;2023-08-06T11:52:16;90889.78;;;25.83;41.49
39455;BME280;25155;41.890;23.446;2023-08-06T11:54:45;90894.34;;;25.50;41.72
39455;BME280;25155;41.890;23.446;2023-08-06T11:57:12;90897.81;;;25.69;42.58
39455;BME280;25155;41.890;23.446;2023-08-06T11:59:39;90904.28;;;25.78;40.76
39455;BME280;25155;41.890;23.446;2023-08-06T12:02:09;90896.25;;;25.75;41.21
39455;BME280;25155;41.890;23.446;2023-08-06T12:05:03;90904.66;;;25.84;41.41
39455;BME280;25155;41.890;23.446;2023-08-06T12:07:32;90897.41;;;25.67;40.67
39455;BME280;25155;41.890;23.446;2023-08-06T12:10:00;90883.69;;;25.57;41.16
39455;BME280;25155;41.890;23.446;2023-08-06T12:12:28;90890.53;;;25.58;41.44
39455;BME280;25155;41.890;23.446;2023-08-06T12:14:55;90901.59;;;25.68;41.82
39455;BME280;25155;41.890;23.446;2023-08-06T12:17:23;90903.13;;;25.83;42.52
39455;BME280;25155;41.890;23.446;2023-08-06T12:19:51;90896.63;;;25.95;42.32
39455;BME280;25155;41.890;23.446;2023-08-06T12:22:19;90899.72;;;26.01;41.97
39455;BME280;25155;41.890;23.446;2023-08-06T12:24:47;90907.31;;;25.95;40.91
39455;BME280;25155;41.890;23.446;2023-08-06T12:27:15;90911.53;;;25.92;40.28
39455;BME280;25155;41.890;23.446;2023-08-06T12:29:42;90902.00;;;25.81;41.69
39455;BME280;25155;41.890;23.446;2023-08-06T12:32:10;90895.88;;;25.76;41.33
39455;BME280;25155;41.890;23.446;2023-08-06T12:34:38;90895.50;;;25.78;41.49
39455;BME280;25155;41.890;23.446;2023-08-06T12:37:05;90882.94;;;25.78;41.44
39455;BME280;25155;41.890;23.446;2023-08-06T12:39:34;90889.03;;;25.75;41.50
39455;BME280;25155;41.890;23.446;2023-08-06T12:42:03;90890.53;;;25.80;41.86
39455;BME280;25155;41.890;23.446;2023-08-06T12:44:31;90879.13;;;25.69;41.81
39455;BME280;25155;41.890;23.446;2023-08-06T12:46:59;90881.75;;;25.65;41.80
39455;BME280;25155;41.890;23.446;2023-08-06T12:49:27;90881.38;;;25.59;41.55
39455;BME280;25155;41.890;23.446;2023-08-06T12:51:54;90864.63;;;25.63;41.34
39455;BME280;25155;41.890;23.446;2023-08-06T12:54:24;90880.63;;;25.66;41.96
39455;BME280;25155;41.890;23.446;2023-08-06T12:56:53;90901.97;;;25.70;41.47
39455;BME280;25155;41.890;23.446;2023-08-06T12:59:20;90899.31;;;25.70;41.34
39455;BME280;25155;41.890;23.446;2023-08-06T13:01:47;90912.28;;;25.68;41.50
39455;BME280;25155;41.890;23.446;2023-08-06T13:04:15;90903.88;;;25.76;41.52
39455;BME280;25155;41.890;23.446;2023-08-06T13:06:42;90901.22;;;25.80;41.49
39455;BME280;25155;41.890;23.446;2023-08-06T13:09:10;90903.13;;;25.90;41.36
39455;BME280;25155;41.890;23.446;2023-08-06T13:11:38;90898.19;;;25.92;41.40